SBRB/RBR METAR and TAF weather

Enter ICAO airport designator
Station Type Date Time Source
SBRB METAR 2021/09/20 04:00 UTC NOAA

SBRB 200400Z 00000KT CAVOK 25/21 Q1011


Station Type Date Time Source
SBRB Decoded METAR 2021/09/20 04:00 UTC NOAA

Rio Branco, Brazil (SBRB) 10-00S 067-48W 143M
Sep 20, 2021 - 12:00 AM EDT / 2021.09.20 0400 UTC
Wind: Calm:0
Visibility: greater than 7 mile(s):0
Temperature: 77 F (25 C)
Dew Point: 69 F (21 C)
Relative Humidity: 78%
Pressure (altimeter): 29.85 in. Hg (1011 hPa)
ob: SBRB 200400Z 00000KT CAVOK 25/21 Q1011
cycle: 4

Station Type Date Time Source
SBRB TAF 2021/09/20 06:45 UTC NOAA

TAF SBRB 200240Z 2006/2018 34005KT 7000 SCT020 TN24/2008Z TX35/2018Z
BECMG 2006/2009 32005KT
BECMG 2012/2014 29005KT
RMK PGW

Example: see airport list